createdAt,value
2018-12-06T00:02:23.327Z,0.61
2018-12-06T00:04:52.018Z,0.58
2018-12-06T00:07:20.681Z,0.61
2018-12-06T00:09:49.358Z,0.66
2018-12-06T00:12:18.014Z,0.62
2018-12-06T00:14:46.701Z,0.59
2018-12-06T00:17:15.365Z,0.58
2018-12-06T00:19:44.052Z,0.52
2018-12-06T00:22:12.688Z,0.55
2018-12-06T00:24:41.356Z,0.52
2018-12-06T00:27:10.325Z,0.54
2018-12-06T00:29:38.976Z,0.51
2018-12-06T00:32:07.610Z,0.48
2018-12-06T00:34:36.274Z,0.50
2018-12-06T00:37:04.946Z,0.46
2018-12-06T00:39:33.610Z,0.44
2018-12-06T00:42:02.459Z,0.41
2018-12-06T00:44:31.445Z,0.44
2018-12-06T00:47:00.077Z,0.50
2018-12-06T00:49:28.697Z,0.50
2018-12-06T00:51:57.398Z,0.46
2018-12-06T00:54:26.121Z,0.45
2018-12-06T00:56:54.789Z,0.44
2018-12-06T00:59:23.442Z,0.46
2018-12-06T01:01:53.393Z,0.42
2018-12-06T01:04:22.159Z,0.42
2018-12-06T01:06:50.788Z,0.34
2018-12-06T01:09:19.468Z,0.40
2018-12-06T01:11:48.116Z,0.34
2018-12-06T01:14:16.769Z,0.35
2018-12-06T01:16:45.428Z,0.32
2018-12-06T01:19:14.098Z,0.32
2018-12-06T01:21:42.734Z,0.32
2018-12-06T01:24:11.417Z,0.30
2018-12-06T01:26:40.490Z,0.29
2018-12-06T01:29:09.111Z,0.24
2018-12-06T01:31:37.724Z,0.21
2018-12-06T01:34:06.358Z,0.23
2018-12-06T01:36:34.963Z,0.23
2018-12-06T01:39:04.792Z,0.18
2018-12-06T01:41:33.417Z,0.21
2018-12-06T01:44:02.859Z,0.14
2018-12-06T01:46:31.480Z,0.09
2018-12-06T01:49:00.146Z,0.09
2018-12-06T01:51:28.838Z,0.08
2018-12-06T01:53:57.443Z,0.11
2018-12-06T01:56:26.128Z,0.09
2018-12-06T01:58:54.772Z,0.04
2018-12-06T02:01:23.465Z,0.03
2018-12-06T02:03:52.390Z,-0.04
2018-12-06T02:06:21.105Z,-0.09
2018-12-06T02:08:49.756Z,-0.09
2018-12-06T02:11:18.386Z,-0.09
2018-12-06T02:13:47.030Z,-0.05
2018-12-06T02:16:15.641Z,-0.06
2018-12-06T02:18:44.316Z,-0.10
2018-12-06T02:21:12.926Z,-0.09
2018-12-06T02:23:41.651Z,-0.05
2018-12-06T02:26:10.324Z,-0.06
2018-12-06T02:28:39.180Z,-0.01
2018-12-06T02:31:07.972Z,-0.07
2018-12-06T02:33:36.589Z,-0.07
2018-12-06T02:36:05.285Z,-0.11
2018-12-06T02:38:33.932Z,-0.12
2018-12-06T02:41:02.623Z,-0.07
2018-12-06T02:43:31.284Z,-0.09
2018-12-06T02:45:59.991Z,-0.12
2018-12-06T02:48:28.804Z,-0.13
2018-12-06T02:50:57.474Z,-0.11
2018-12-06T02:53:26.208Z,-0.14
2018-12-06T02:55:54.832Z,-0.14
2018-12-06T02:58:23.479Z,-0.11
2018-12-06T03:00:52.095Z,-0.15
2018-12-06T03:03:20.773Z,-0.15
2018-12-06T03:05:49.422Z,-0.21
2018-12-06T03:08:18.034Z,-0.23
2018-12-06T03:10:46.700Z,-0.24
2018-12-06T03:13:15.345Z,-0.19
2018-12-06T03:15:44.013Z,-0.24
2018-12-06T03:18:12.744Z,-0.24
2018-12-06T03:20:41.388Z,-0.19
2018-12-06T03:23:09.995Z,-0.22
2018-12-06T03:25:38.640Z,-0.27
2018-12-06T03:28:07.329Z,-0.28
2018-12-06T03:30:35.955Z,-0.34
2018-12-06T03:33:04.603Z,-0.34
2018-12-06T03:35:33.257Z,-0.36
2018-12-06T03:38:01.884Z,-0.34
2018-12-06T03:40:30.594Z,-0.36
2018-12-06T03:42:59.268Z,-0.36
2018-12-06T03:45:27.909Z,-0.35
2018-12-06T03:47:56.512Z,-0.35
2018-12-06T03:50:25.216Z,-0.40
2018-12-06T03:52:53.920Z,-0.41
2018-12-06T03:55:22.641Z,-0.40
2018-12-06T03:57:51.309Z,-0.35
2018-12-06T04:00:19.956Z,-0.37
2018-12-06T04:02:48.587Z,-0.36
2018-12-06T04:05:17.313Z,-0.37
2018-12-06T04:07:45.933Z,-0.41
2018-12-06T04:10:14.643Z,-0.34
2018-12-06T04:12:43.274Z,-0.28
2018-12-06T04:15:12.130Z,-0.34
2018-12-06T04:17:40.806Z,-0.44
2018-12-06T04:20:09.426Z,-0.54
2018-12-06T04:22:38.056Z,-0.52
2018-12-06T04:25:06.888Z,-0.52
2018-12-06T04:27:35.584Z,-0.51
2018-12-06T04:30:08.378Z,-0.53
2018-12-06T04:32:37.031Z,-0.51
2018-12-06T04:35:05.770Z,-0.54
2018-12-06T04:37:34.504Z,-0.53
2018-12-06T04:40:03.248Z,-0.52
2018-12-06T04:42:31.918Z,-0.55
2018-12-06T04:45:00.843Z,-0.50
2018-12-06T04:47:29.718Z,-0.49
2018-12-06T04:49:59.908Z,-0.44
2018-12-06T06:04:38.472Z,-0.79
2018-12-06T06:07:07.064Z,-0.82
2018-12-06T06:09:35.742Z,-0.79
2018-12-06T06:12:04.388Z,-0.74
2018-12-06T06:14:33.056Z,-0.77
2018-12-06T06:17:01.745Z,-0.78
2018-12-06T06:19:30.357Z,-0.72
2018-12-06T06:21:59.022Z,-0.77
2018-12-06T06:24:27.663Z,-0.73
2018-12-06T06:26:56.216Z,-0.69
2018-12-06T06:29:24.959Z,-0.67
2018-12-06T06:31:53.616Z,-0.63
2018-12-06T06:34:22.374Z,-0.59
2018-12-06T06:36:51.054Z,-0.61
2018-12-06T06:39:20.161Z,-0.63
2018-12-06T06:41:48.812Z,-0.73
2018-12-06T06:44:19.884Z,-0.67
2018-12-06T06:46:48.507Z,-0.59
2018-12-06T06:49:17.127Z,-0.57
2018-12-06T06:51:45.776Z,-0.59
2018-12-06T06:54:15.276Z,-0.58
2018-12-06T06:56:43.948Z,-0.65
2018-12-06T06:59:12.641Z,-0.54
2018-12-06T07:01:41.320Z,-0.63
2018-12-06T07:04:10.670Z,-0.63
2018-12-06T07:06:39.425Z,-0.57
2018-12-06T07:09:08.647Z,-0.64
2018-12-06T07:11:37.312Z,-0.76
2018-12-06T07:14:06.004Z,-0.81
2018-12-06T07:16:34.639Z,-0.88
2018-12-06T07:19:03.976Z,-0.85
2018-12-06T07:21:32.630Z,-0.89
2018-12-06T07:24:01.332Z,-0.90
2018-12-06T07:26:30.418Z,-0.89
2018-12-06T07:28:59.201Z,-0.83
2018-12-06T07:31:27.772Z,-0.77
2018-12-06T07:35:25.507Z,-0.77
2018-12-06T07:37:54.154Z,-0.79
2018-12-06T07:40:22.911Z,-0.81
2018-12-06T07:42:51.563Z,-0.84
2018-12-06T07:45:20.470Z,-0.85
2018-12-06T07:47:49.149Z,-0.84
2018-12-06T07:50:17.778Z,-0.75
2018-12-06T07:52:46.459Z,-0.66
2018-12-06T07:55:15.185Z,-0.70
2018-12-06T07:57:43.804Z,-0.61
2018-12-06T08:00:12.583Z,-0.64
2018-12-06T08:02:41.404Z,-0.75
2018-12-06T08:05:10.282Z,-0.72
2018-12-06T08:07:38.981Z,-0.76
